createdAt,value
2022-08-17T00:01:32.691Z,57.70
2022-08-17T00:04:19.471Z,57.70
2022-08-17T00:06:46.379Z,57.70
2022-08-17T00:09:18.919Z,57.80
2022-08-17T00:12:40.421Z,57.90
2022-08-17T00:14:33.640Z,57.90
2022-08-17T00:17:00.368Z,57.80
2022-08-17T00:19:27.306Z,57.80
2022-08-17T00:22:32.857Z,57.80
2022-08-17T00:24:43.467Z,57.80
2022-08-17T00:27:10.710Z,57.80
2022-08-17T00:29:37.719Z,57.80
2022-08-17T00:33:15.410Z,57.90
2022-08-17T00:34:51.500Z,57.90
2022-08-17T00:37:18.269Z,58.10
2022-08-17T00:39:45.082Z,58.40
2022-08-17T00:42:16.608Z,58.60
2022-08-17T00:44:43.358Z,58.60
2022-08-17T00:47:10.225Z,58.70
2022-08-17T00:49:36.960Z,58.90
2022-08-17T00:52:11.639Z,59.20
2022-08-17T00:54:41.711Z,59.40
2022-08-17T00:57:37.089Z,59.80
2022-08-17T01:00:11.468Z,59.50
2022-08-17T01:02:42.790Z,59.50
2022-08-17T01:05:19.069Z,59.60
2022-08-17T01:07:46.479Z,59.60
2022-08-17T01:10:59.176Z,59.50
2022-08-17T01:13:03.331Z,59.60
2022-08-17T01:15:31.483Z,59.80
2022-08-17T01:17:58.270Z,60.10
2022-08-17T01:20:25.156Z,60.40
2022-08-17T01:22:52.438Z,60.70
2022-08-17T01:25:19.196Z,60.70
2022-08-17T01:27:45.906Z,60.80
2022-08-17T01:30:56.923Z,61.00
2022-08-17T01:32:59.841Z,61.30
2022-08-17T01:35:26.715Z,61.70
2022-08-17T01:37:53.515Z,62.00
2022-08-17T01:40:39.051Z,62.40
2022-08-17T01:43:22.687Z,62.90
2022-08-17T01:46:02.835Z,63.30
2022-08-17T01:48:35.293Z,63.60
2022-08-17T01:51:02.164Z,64.00
2022-08-17T01:53:34.847Z,64.20
2022-08-17T01:56:09.887Z,64.70
2022-08-17T01:58:36.788Z,65.00
2022-08-17T02:01:04.048Z,65.10
2022-08-17T02:03:31.086Z,65.30
2022-08-17T02:05:58.114Z,65.50
2022-08-17T02:08:38.969Z,65.80
2022-08-17T02:11:14.697Z,65.90
2022-08-17T02:13:42.114Z,66.70
2022-08-17T02:16:08.878Z,66.30
2022-08-17T02:18:35.618Z,66.70
2022-08-17T02:21:02.426Z,66.90
2022-08-17T02:23:30.535Z,67.00
2022-08-17T02:25:58.678Z,67.20
2022-08-17T02:28:25.507Z,67.40
2022-08-17T02:31:01.945Z,67.70
2022-08-17T02:33:42.110Z,67.90
2022-08-17T02:36:11.116Z,68.10
2022-08-17T02:38:38.505Z,68.30
2022-08-17T02:41:05.456Z,68.60
2022-08-17T02:43:34.594Z,68.80
2022-08-17T02:46:01.995Z,69.10
2022-08-17T02:48:30.850Z,69.10
2022-08-17T02:50:58.176Z,69.40
2022-08-17T02:53:25.712Z,69.60
2022-08-17T02:55:52.708Z,69.80
2022-08-17T02:58:29.596Z,69.90
2022-08-17T03:01:03.504Z,70.20
2022-08-17T03:03:30.826Z,70.30
2022-08-17T03:05:57.896Z,70.50
2022-08-17T03:08:25.547Z,71.00
2022-08-17T03:10:52.544Z,71.30
2022-08-17T03:13:19.548Z,71.50
2022-08-17T03:15:46.519Z,71.80
2022-08-17T03:18:19.241Z,71.90
2022-08-17T03:20:54.768Z,72.10
2022-08-17T03:23:23.941Z,72.20
2022-08-17T03:25:52.981Z,72.50
2022-08-17T03:28:20.358Z,72.80
2022-08-17T03:30:47.107Z,73.00
2022-08-17T03:33:13.977Z,73.30
2022-08-17T03:35:40.848Z,73.70
2022-08-17T03:38:08.761Z,73.80
2022-08-17T03:40:57.941Z,74.10
2022-08-17T03:43:22.550Z,74.40
2022-08-17T03:46:24.877Z,74.60
2022-08-17T03:49:12.984Z,74.90
2022-08-17T03:51:58.386Z,75.10
2022-08-17T03:54:44.063Z,75.40
2022-08-17T03:57:11.657Z,75.80
2022-08-17T03:59:38.791Z,75.90
2022-08-17T04:02:11.955Z,76.10
2022-08-17T04:04:38.813Z,76.20
2022-08-17T04:07:05.795Z,76.50
2022-08-17T04:09:33.330Z,76.40
2022-08-17T04:12:04.778Z,76.70
2022-08-17T04:14:47.744Z,76.60
2022-08-17T04:17:21.257Z,76.70
2022-08-17T04:19:48.515Z,76.70
2022-08-17T04:22:32.233Z,76.70
2022-08-17T04:25:16.503Z,76.50
2022-08-17T04:27:44.135Z,76.40
2022-08-17T04:30:11.526Z,76.10
2022-08-17T04:33:08.734Z,75.80
2022-08-17T04:35:50.163Z,75.20
2022-08-17T04:38:19.284Z,74.70
2022-08-17T04:41:04.442Z,74.00
2022-08-17T04:51:34.576Z,70.90
2022-08-17T04:54:07.274Z,69.60
2022-08-17T04:56:57.129Z,68.50
2022-08-17T04:59:24.079Z,68.00
2022-08-17T05:01:51.531Z,67.00
2022-08-17T05:04:34.010Z,66.10
2022-08-17T05:07:07.700Z,65.10
2022-08-17T05:09:37.002Z,64.00
2022-08-17T05:12:25.169Z,62.60
2022-08-17T05:18:03.651Z,60.50
2022-08-17T05:20:33.070Z,59.60
2022-08-17T05:23:07.123Z,59.00
2022-08-17T05:25:41.685Z,58.30
2022-08-17T05:28:32.036Z,57.80
2022-08-17T05:31:05.314Z,57.10
2022-08-17T05:33:37.729Z,56.50
2022-08-17T05:36:41.962Z,56.10
2022-08-17T05:39:02.964Z,55.60
2022-08-17T05:41:35.536Z,55.20
2022-08-17T05:44:05.543Z,54.80
2022-08-17T05:46:38.377Z,54.20
2022-08-17T05:49:07.919Z,53.50
2022-08-17T05:51:58.855Z,52.80
2022-08-17T05:54:42.370Z,52.30
2022-08-17T05:57:47.459Z,51.40
2022-08-17T06:00:30.275Z,50.80
2022-08-17T06:03:12.797Z,50.40
2022-08-17T06:06:02.481Z,49.80
2022-08-17T06:08:42.601Z,49.00
2022-08-17T06:11:41.664Z,48.60
2022-08-17T06:14:23.350Z,48.20
2022-08-17T06:17:14.703Z,48.00
2022-08-17T06:19:58.200Z,47.70
2022-08-17T06:22:28.150Z,47.00
2022-08-17T06:25:10.168Z,46.40
2022-08-17T06:27:47.569Z,46.30
2022-08-17T06:30:25.606Z,45.70
2022-08-17T06:32:53.347Z,45.60
2022-08-17T06:35:30.040Z,45.00
2022-08-17T06:38:04.239Z,44.80
2022-08-17T06:40:45.516Z,43.90
2022-08-17T06:43:43.111Z,43.80
2022-08-17T06:46:27.810Z,42.10
2022-08-17T06:49:07.353Z,43.00
2022-08-17T06:51:43.310Z,42.90
2022-08-17T06:54:30.697Z,42.40
2022-08-17T06:57:02.013Z,42.00
2022-08-17T06:59:54.384Z,41.40
2022-08-17T07:03:02.552Z,41.30
2022-08-17T07:05:34.212Z,40.30
2022-08-17T07:08:27.691Z,40.50
2022-08-17T07:10:57.773Z,41.00
2022-08-17T07:13:29.755Z,40.90
2022-08-17T07:16:04.712Z,41.10
2022-08-17T07:18:33.226Z,41.30
2022-08-17T07:21:07.411Z,41.40
2022-08-17T07:24:00.656Z,40.80
2022-08-17T07:26:28.021Z,40.40
2022-08-17T07:28:56.246Z,40.70
2022-08-17T07:31:25.016Z,40.60
2022-08-17T07:34:08.672Z,40.70
2022-08-17T07:36:35.465Z,40.50
2022-08-17T07:39:02.679Z,40.60
2022-08-17T07:41:59.102Z,40.10
2022-08-17T07:44:17.593Z,40.00
2022-08-17T07:47:08.388Z,39.70
2022-08-17T07:49:47.503Z,39.40
2022-08-17T07:52:50.573Z,39.00
2022-08-17T07:55:32.744Z,38.60
2022-08-17T07:58:00.163Z,38.40
2022-08-17T08:00:32.410Z,37.80
2022-08-17T08:03:11.613Z,37.70
2022-08-17T08:05:50.335Z,37.60
2022-08-17T08:08:53.188Z,37.70
2022-08-17T08:11:34.268Z,38.10
2022-08-17T08:14:29.955Z,38.60
2022-08-17T08:17:09.413Z,39.20
2022-08-17T08:19:36.307Z,39.80
2022-08-17T08:22:11.158Z,40.20
2022-08-17T08:25:00.106Z,40.60
2022-08-17T08:27:36.466Z,41.00
2022-08-17T08:30:06.614Z,41.40
2022-08-17T08:33:05.612Z,41.50
2022-08-17T08:35:37.259Z,41.60
2022-08-17T08:38:32.548Z,41.70
2022-08-17T08:41:20.427Z,42.80
2022-08-17T08:44:12.865Z,42.50
2022-08-17T08:47:10.315Z,42.60
2022-08-17T08:50:05.326Z,42.80
2022-08-17T08:52:41.584Z,42.70
2022-08-17T08:55:43.489Z,42.40
2022-08-17T08:58:31.706Z,42.30
2022-08-17T09:01:08.805Z,41.80
2022-08-17T09:04:16.990Z,42.10
2022-08-17T09:06:57.883Z,42.50
2022-08-17T09:10:00.749Z,43.00
2022-08-17T09:12:33.452Z,42.30
2022-08-17T09:15:18.702Z,42.50
2022-08-17T09:18:58.830Z,42.80
2022-08-17T09:20:55.320Z,43.00
2022-08-17T09:23:32.865Z,43.20
2022-08-17T09:26:22.468Z,43.10
2022-08-17T09:28:53.602Z,42.70
2022-08-17T09:31:35.431Z,42.20
2022-08-17T09:34:18.202Z,41.70
2022-08-17T09:36:55.261Z,41.40
2022-08-17T09:39:35.201Z,41.10
2022-08-17T09:42:12.179Z,41.00
2022-08-17T09:44:52.256Z,40.90
2022-08-17T09:47:39.588Z,40.70
2022-08-17T09:50:13.643Z,40.30
2022-08-17T09:52:41.129Z,40.10
2022-08-17T09:55:08.095Z,39.90
2022-08-17T09:58:04.969Z,39.40
2022-08-17T10:00:35.395Z,39.40
2022-08-17T10:03:28.235Z,38.90
2022-08-17T10:06:13.370Z,39.10
2022-08-17T10:08:42.818Z,38.50
2022-08-17T10:11:55.106Z,38.50
2022-08-17T10:14:36.294Z,38.30
2022-08-17T10:17:25.826Z,37.70
2022-08-17T10:20:19.452Z,38.00
2022-08-17T10:23:10.621Z,37.70
2022-08-17T10:25:57.272Z,37.60
2022-08-17T10:28:29.561Z,38.10
2022-08-17T10:31:23.349Z,37.70
2022-08-17T10:33:58.355Z,37.60
2022-08-17T10:36:29.176Z,37.40
2022-08-17T10:39:15.047Z,37.70
2022-08-17T10:41:44.503Z,37.90
2022-08-17T10:44:48.579Z,37.90
2022-08-17T10:47:16.838Z,38.60
2022-08-17T10:49:47.959Z,38.70
2022-08-17T10:52:20.809Z,38.70
2022-08-17T10:54:48.373Z,38.40
2022-08-17T10:57:27.453Z,38.30
2022-08-17T10:59:57.187Z,38.60
2022-08-17T11:02:27.428Z,38.40
2022-08-17T11:04:59.901Z,38.50
2022-08-17T11:07:43.838Z,38.70
2022-08-17T11:10:20.320Z,38.50
2022-08-17T11:13:05.720Z,38.70
2022-08-17T11:15:45.120Z,39.00
2022-08-17T11:18:30.713Z,39.00
2022-08-17T11:21:09.964Z,38.80
2022-08-17T11:24:05.096Z,38.90
2022-08-17T11:26:36.135Z,39.20
2022-08-17T11:29:24.752Z,39.00
2022-08-17T11:32:07.876Z,38.70
2022-08-17T11:34:38.021Z,38.20
2022-08-17T11:37:04.921Z,38.50
2022-08-17T11:40:03.369Z,38.40
2022-08-17T11:42:57.895Z,38.10
2022-08-17T11:46:02.094Z,37.60
2022-08-17T11:49:20.909Z,37.60
2022-08-17T11:52:00.380Z,37.80
2022-08-17T11:54:33.744Z,38.10
2022-08-17T11:57:26.416Z,37.40
2022-08-17T11:59:54.306Z,37.50
2022-08-17T12:02:32.900Z,37.90
2022-08-17T12:05:14.863Z,38.10
2022-08-17T12:07:57.295Z,38.00
2022-08-17T12:10:31.688Z,37.60
2022-08-17T12:13:14.668Z,37.10
2022-08-17T12:15:49.670Z,36.90
2022-08-17T12:18:24.592Z,37.20
2022-08-17T12:21:23.039Z,37.30
2022-08-17T12:24:18.960Z,36.90
2022-08-17T12:26:55.762Z,37.30
2022-08-17T12:29:35.833Z,37.50
2022-08-17T12:32:06.804Z,38.10
2022-08-17T12:34:41.081Z,37.50
2022-08-17T12:37:15.258Z,36.90
2022-08-17T12:39:59.298Z,36.80
2022-08-17T12:42:37.669Z,36.70
2022-08-17T12:45:06.651Z,36.40
2022-08-17T12:47:37.088Z,36.10
2022-08-17T12:50:29.145Z,35.80
2022-08-17T12:53:01.615Z,36.20
2022-08-17T12:55:32.529Z,36.70
2022-08-17T12:58:01.801Z,36.90
2022-08-17T13:00:34.305Z,36.80
2022-08-17T13:03:25.478Z,37.00
2022-08-17T13:05:52.209Z,37.10
2022-08-17T13:08:27.015Z,37.20
2022-08-17T13:10:55.645Z,37.20
2022-08-17T13:13:24.825Z,37.30
2022-08-17T13:16:05.686Z,37.40
2022-08-17T13:18:48.283Z,37.20
2022-08-17T13:21:26.725Z,37.20
2022-08-17T13:24:06.862Z,37.40
2022-08-17T13:26:59.277Z,37.50
2022-08-17T13:29:34.619Z,37.20
2022-08-17T13:32:05.068Z,37.20
2022-08-17T13:35:12.051Z,37.30
2022-08-17T13:37:33.551Z,37.20
2022-08-17T13:40:09.418Z,37.10
2022-08-17T13:42:52.407Z,37.00
2022-08-17T13:45:34.247Z,37.00
2022-08-17T13:48:14.013Z,37.10
2022-08-17T13:50:49.754Z,37.20
2022-08-17T13:53:33.196Z,37.00
2022-08-17T13:56:37.558Z,37.10
2022-08-17T13:59:52.651Z,37.10
2022-08-17T14:02:17.158Z,37.20
2022-08-17T14:04:44.500Z,37.50
2022-08-17T14:07:12.486Z,37.50
2022-08-17T14:09:54.118Z,37.30
2022-08-17T14:12:25.011Z,37.40
2022-08-17T14:14:52.155Z,37.40
2022-08-17T14:17:19.132Z,37.40
2022-08-17T14:19:45.884Z,37.40
2022-08-17T14:22:18.332Z,37.40
2022-08-17T14:24:45.192Z,37.40
2022-08-17T14:27:12.112Z,37.10
2022-08-17T14:29:41.060Z,37.10
2022-08-17T14:32:21.398Z,37.00
2022-08-17T14:34:49.586Z,37.10
2022-08-17T14:37:20.032Z,37.10
2022-08-17T14:39:47.075Z,37.20
2022-08-17T14:42:15.084Z,37.40
2022-08-17T14:44:41.838Z,37.30
2022-08-17T14:47:14.821Z,37.50
2022-08-17T14:49:42.223Z,37.50
2022-08-17T14:52:09.316Z,37.50
2022-08-17T14:54:36.040Z,37.60
2022-08-17T14:57:24.797Z,38.30
2022-08-17T14:59:53.404Z,37.70
2022-08-17T15:02:22.701Z,38.20
2022-08-17T15:05:02.774Z,37.50
2022-08-17T15:07:30.595Z,37.30
2022-08-17T15:09:58.924Z,37.40
2022-08-17T15:12:32.403Z,37.50
2022-08-17T15:15:00.670Z,37.50
2022-08-17T15:17:27.485Z,37.40
2022-08-17T15:20:19.712Z,37.50
2022-08-17T15:22:49.398Z,37.50
2022-08-17T15:25:16.559Z,37.40
2022-08-17T15:27:44.057Z,37.50
2022-08-17T15:30:11.773Z,37.40
2022-08-17T15:32:39.607Z,37.50
2022-08-17T15:35:07.150Z,37.50
2022-08-17T15:37:33.970Z,37.20
2022-08-17T15:40:01.143Z,37.30
2022-08-17T15:42:29.286Z,37.50
2022-08-17T15:44:56.098Z,37.50
2022-08-17T15:47:24.405Z,37.60
2022-08-17T15:49:51.149Z,37.60
2022-08-17T15:52:23.006Z,37.70
2022-08-17T15:54:54.133Z,37.70
2022-08-17T15:57:20.996Z,37.70
2022-08-17T15:59:52.122Z,37.80
2022-08-17T16:03:45.875Z,37.80
2022-08-17T16:05:24.880Z,38.40
2022-08-17T16:07:52.438Z,37.70
2022-08-17T16:10:19.704Z,37.60
2022-08-17T16:12:47.635Z,37.60
2022-08-17T16:15:14.649Z,37.50
2022-08-17T16:17:41.586Z,37.50
2022-08-17T16:20:09.964Z,37.60
2022-08-17T16:22:48.312Z,37.60
2022-08-17T16:25:20.776Z,37.40
2022-08-17T16:27:48.283Z,37.50
2022-08-17T16:30:18.291Z,37.40
2022-08-17T16:32:45.219Z,37.50
2022-08-17T16:35:12.376Z,37.40
2022-08-17T16:37:40.329Z,37.50
2022-08-17T16:40:11.872Z,37.40
2022-08-17T16:42:39.703Z,37.40
2022-08-17T16:45:08.153Z,37.50
2022-08-17T16:47:34.942Z,37.50
2022-08-17T16:50:04.095Z,37.60
2022-08-17T16:52:32.615Z,37.60
2022-08-17T16:55:00.973Z,37.50
2022-08-17T16:57:27.861Z,37.60
2022-08-17T16:59:54.621Z,37.70
2022-08-17T17:02:41.211Z,37.80
2022-08-17T17:05:16.851Z,38.00
2022-08-17T17:07:58.454Z,38.00
2022-08-17T17:10:36.145Z,38.10
2022-08-17T17:13:04.480Z,38.00
2022-08-17T17:15:42.927Z,38.30
2022-08-17T17:18:09.806Z,38.50
2022-08-17T17:20:42.916Z,38.60
2022-08-17T17:23:52.998Z,38.70
2022-08-17T17:26:25.565Z,38.80
2022-08-17T17:29:02.300Z,38.90
2022-08-17T17:31:33.724Z,39.00
2022-08-17T17:34:02.990Z,39.20
2022-08-17T17:36:50.303Z,39.40
2022-08-17T17:39:41.485Z,39.80
2022-08-17T17:42:20.194Z,40.20
2022-08-17T17:44:58.576Z,40.60
2022-08-17T17:47:26.595Z,40.80
2022-08-17T17:49:53.384Z,41.50
2022-08-17T17:52:32.833Z,41.20
2022-08-17T17:55:23.136Z,41.40
2022-08-17T17:57:57.817Z,41.80
2022-08-17T18:00:26.028Z,42.00
2022-08-17T18:03:08.955Z,42.40
2022-08-17T18:05:54.941Z,42.80
2022-08-17T18:08:34.703Z,43.00
2022-08-17T18:11:05.116Z,43.30
2022-08-17T18:13:53.376Z,43.70
2022-08-17T18:16:20.610Z,44.20
2022-08-17T18:18:47.968Z,44.50
2022-08-17T18:21:45.862Z,45.00
2022-08-17T18:24:13.251Z,45.40
2022-08-17T18:26:47.792Z,45.90
2022-08-17T18:29:24.195Z,46.40
2022-08-17T18:32:11.844Z,46.90
2022-08-17T18:34:47.277Z,47.80
2022-08-17T18:37:33.122Z,48.10
2022-08-17T18:40:08.288Z,48.30
2022-08-17T18:42:35.369Z,48.60
2022-08-17T18:45:02.392Z,48.90
2022-08-17T18:47:29.614Z,49.20
2022-08-17T18:50:00.531Z,49.50
2022-08-17T18:52:29.941Z,49.80
2022-08-17T18:55:01.009Z,49.80
2022-08-17T18:57:40.687Z,49.90
2022-08-17T19:00:38.401Z,50.40
2022-08-17T19:03:20.257Z,50.30
2022-08-17T19:05:50.557Z,50.10
2022-08-17T19:08:34.457Z,50.30
2022-08-17T19:11:05.806Z,50.30
2022-08-17T19:13:55.053Z,50.50
2022-08-17T19:16:21.780Z,50.80
2022-08-17T19:19:00.172Z,51.00
2022-08-17T19:21:36.330Z,50.80
2022-08-17T19:24:20.458Z,50.90
2022-08-17T19:27:18.348Z,51.60
2022-08-17T19:30:05.325Z,51.30
2022-08-17T19:32:34.813Z,51.60
2022-08-17T19:35:02.318Z,51.80
2022-08-17T19:37:48.309Z,52.10
2022-08-17T19:40:52.488Z,52.50
2022-08-17T19:43:41.789Z,52.90
2022-08-17T19:46:11.536Z,53.10
2022-08-17T19:49:00.484Z,53.20
2022-08-17T19:51:36.020Z,53.00
2022-08-17T19:54:44.157Z,53.00
2022-08-17T19:57:44.184Z,53.20
2022-08-17T20:00:14.004Z,53.00
2022-08-17T20:03:08.593Z,52.80
2022-08-17T20:06:09.179Z,52.90
2022-08-17T20:08:58.879Z,53.10
2022-08-17T20:11:34.244Z,53.10
2022-08-17T20:14:00.969Z,53.10
2022-08-17T20:16:27.865Z,53.00
2022-08-17T20:19:24.324Z,53.00
2022-08-17T20:21:58.455Z,52.90
2022-08-17T20:24:44.367Z,52.80
2022-08-17T20:27:15.581Z,52.90
2022-08-17T20:30:04.052Z,52.90
2022-08-17T20:32:53.035Z,52.90
2022-08-17T20:35:21.495Z,52.80
2022-08-17T20:37:58.257Z,52.70
2022-08-17T20:40:30.938Z,53.00
2022-08-17T20:42:57.961Z,53.10
2022-08-17T20:45:27.155Z,52.90
2022-08-17T20:48:30.861Z,53.00
2022-08-17T20:50:55.025Z,53.30
2022-08-17T20:53:46.671Z,53.30
2022-08-17T20:56:44.880Z,53.30
2022-08-17T20:59:30.344Z,53.30
2022-08-17T21:02:12.396Z,53.50
2022-08-17T21:04:47.475Z,53.60
2022-08-17T21:07:43.464Z,53.80
2022-08-17T21:10:17.772Z,54.10
2022-08-17T21:12:47.940Z,54.20
2022-08-17T21:15:36.030Z,54.10
2022-08-17T21:18:28.562Z,54.10
2022-08-17T21:21:24.322Z,54.00
2022-08-17T21:24:00.069Z,54.10
2022-08-17T21:26:50.436Z,54.20
2022-08-17T21:29:31.376Z,54.90
2022-08-17T21:31:59.496Z,54.50
2022-08-17T21:34:36.000Z,54.50
2022-08-17T21:37:24.893Z,54.80
2022-08-17T21:40:12.244Z,55.00
2022-08-17T21:42:47.705Z,55.10
2022-08-17T21:45:22.136Z,55.20
2022-08-17T21:47:50.482Z,55.40
2022-08-17T21:50:23.147Z,55.30
2022-08-17T21:52:54.027Z,55.20
2022-08-17T21:55:28.090Z,55.10
2022-08-17T21:58:14.345Z,55.20
2022-08-17T22:00:42.459Z,55.30
2022-08-17T22:03:09.548Z,55.50
2022-08-17T22:05:38.008Z,55.50
2022-08-17T22:08:16.515Z,55.60
2022-08-17T22:10:44.733Z,55.60
2022-08-17T22:13:18.368Z,55.80
2022-08-17T22:15:51.308Z,56.60
2022-08-17T22:18:21.933Z,56.60
2022-08-17T22:21:07.073Z,56.70
2022-08-17T22:23:58.060Z,56.50
2022-08-17T22:26:28.186Z,56.30
2022-08-17T22:28:58.459Z,56.40
2022-08-17T22:31:29.748Z,56.50
2022-08-17T22:34:02.158Z,56.70
2022-08-17T22:36:33.574Z,56.70
2022-08-17T22:39:09.007Z,56.90
2022-08-17T22:42:00.225Z,57.10
2022-08-17T22:44:37.777Z,57.20
2022-08-17T22:47:23.973Z,57.30
2022-08-17T22:49:58.867Z,57.40
2022-08-17T22:52:35.082Z,57.60
2022-08-17T22:55:34.945Z,57.80
2022-08-17T22:58:21.733Z,57.90
2022-08-17T23:00:54.425Z,57.90
2022-08-17T23:03:25.657Z,58.00
2022-08-17T23:06:05.750Z,58.10
2022-08-17T23:08:34.879Z,58.40
2022-08-17T23:11:01.686Z,58.40
2022-08-17T23:13:28.608Z,58.60
2022-08-17T23:15:55.369Z,58.80
2022-08-17T23:18:23.450Z,58.60
2022-08-17T23:20:50.268Z,58.50
2022-08-17T23:23:23.453Z,58.60
2022-08-17T23:25:50.639Z,58.90
2022-08-17T23:28:17.359Z,58.80
2022-08-17T23:30:44.521Z,58.70
2022-08-17T23:33:21.290Z,58.80
2022-08-17T23:35:48.131Z,58.90
2022-08-17T23:38:14.872Z,58.90
2022-08-17T23:40:41.717Z,59.00
2022-08-17T23:43:17.434Z,59.00
2022-08-17T23:45:56.205Z,59.10
2022-08-17T23:48:32.740Z,59.80
2022-08-17T23:51:05.759Z,59.30
2022-08-17T23:53:34.139Z,59.40
2022-08-17T23:56:09.079Z,59.50
2022-08-17T23:58:38.523Z,59.50
